Latest Weather Observations for Warracknabeal Airport

IDV60801

Issued at 12:02 pm EDT Sunday 18 February 2018 (issued every 30 minutes, with the page automatically refreshed every 10 minutes)

About weather observations | Map of weather stations | Latest weather observations for VIC | Other Formats
Station Details ID: 078018 Name: WARRACKNABEAL AIRPORT Lat: -36.32 Lon: 142.42 Height: 118.3 m
Data from the previous 72 hours. | See also: Recent months for locations in Victoria
Date/Time
EDT
Temp
°C
App
Temp
°C
Dew
Point
°C
Rel
Hum
%
Delta-T
°C
Wind Press
QNH
hPa
Press
MSL
hPa
Rain since
9am
mm
Dir  Spd
km/h
Gust
km/h
Spd
kts
Gust
kts
18/12:00pm 28.7 27.0 8.4 28 11.2 SSE 7 13 4 7 1011.8 1011.4 0.0
18/11:30am 28.3 26.8 9.1 30 10.7 SE 7 11 4 6 1011.9 1011.5 0.0
18/11:00am 25.9 24.4 9.3 35 9.1 SE 7 11 4 6 1012.2 1011.8 0.0
18/10:30am 24.0 22.3 9.9 41 7.8 SE 9 13 5 7 1012.1 1011.7 0.0
18/10:00am 22.7 20.7 10.2 45 6.9 SE 11 15 6 8 1012.1 1011.7 0.0
18/09:30am 21.0 18.8 10.8 52 5.6 SSE 13 17 7 9 1012.1 1011.7 0.0
18/09:00am 18.7 16.4 10.3 58 4.5 SE 13 17 7 9 1011.9 1011.5 0.0
18/08:30am 17.4 14.8 10.8 65 3.6 SE 15 17 8 9 1011.6 1011.2 0.0
18/08:00am 15.6 13.4 10.8 73 2.6 ESE 13 17 7 9 1011.1 1010.6 0.0
18/07:30am 14.5 12.0 10.9 79 1.9 SE 15 19 8 10 1010.7 1010.2 0.0
18/07:00am 14.3 10.8 10.9 80 1.8 SE 20 24 11 13 1010.7 1010.2 0.0
18/06:30am 14.5 11.1 10.7 78 2.0 SE 19 24 10 13 1010.5 1010.0 0.0
18/06:00am 14.7 11.1 10.7 77 2.1 SE 20 26 11 14 1010.4 1009.9 0.0
18/05:30am 14.6 11.2 10.4 76 2.2 SE 19 24 10 13 1010.3 1009.8 0.0
18/05:00am 14.9 11.2 10.3 74 2.4 SE 20 24 11 13 1010.2 1009.7 0.0
18/04:30am 15.7 12.1 10.7 72 2.7 SE 20 26 11 14 1010.3 1009.8 0.0
18/04:00am 15.8 12.1 10.3 70 2.9 SSE 20 26 11 14 1010.8 1010.3 0.0
18/03:30am 15.9 12.8 10.2 69 3.0 S 17 20 9 11 1011.0 1010.5 0.0
18/03:00am 16.0 12.7 9.4 65 3.4 S 17 20 9 11 1011.2 1010.8 0.0
18/02:30am 16.5 13.5 9.2 62 3.8 SSE 15 17 8 9 1011.1 1010.6 0.0
18/02:00am 17.4 14.0 9.3 59 4.3 SSE 17 20 9 11 1011.1 1010.6 0.0
18/01:30am 18.0 15.0 9.1 56 4.7 S 15 20 8 11 1011.4 1011.0 0.0
18/01:00am 18.1 15.2 8.1 52 5.1 S 13 15 7 8 1011.6 1011.2 0.0
18/12:30am 19.5 16.2 8.2 48 5.9 SSE 15 19 8 10 1011.3 1010.9 0.0
18/12:00am 18.9 15.2 6.4 44 6.3 SW 15 19 8 10 1011.6 1011.2 0.0
 
Date/Time
EDT
Temp
°C
App
Temp
°C
Dew
Point
°C
Rel
Hum
%
Delta-T
°C
Wind Press
QNH
hPa
Press
MSL
hPa
Rain since
9am
mm
Dir  Spd
km/h
Gust
km/h
Spd
kts
Gust
kts
17/11:30pm 19.6 15.9 6.4 42 6.6 SW 15 17 8 9 1011.5 1011.1 0.0
17/11:00pm 19.4 15.7 6.2 42 6.6 SW 15 19 8 10 1011.4 1011.0 0.0
17/10:30pm 19.5 16.4 5.6 40 6.9 SSW 11 13 6 7 1011.4 1011.0 0.0
17/10:00pm 20.5 17.4 5.7 38 7.4 SSW 11 13 6 7 1011.0 1010.5 0.0
17/09:30pm 21.9 18.9 5.8 35 8.1 SSW 11 13 6 7 1010.9 1010.4 0.0
17/09:00pm 22.9 19.9 5.8 33 8.7 SSW 11 13 6 7 1010.7 1010.2 0.0
17/08:30pm 24.6 21.3 6.4 31 9.4 SW 13 15 7 8 1010.6 1010.1 0.0
17/08:00pm 27.2 23.6 6.6 27 10.9 SW 15 19 8 10 1010.3 1009.8 0.0
17/07:30pm 28.3 25.5 7.0 26 11.4 SSW 11 15 6 8 1010.0 1009.5 0.0
17/07:00pm 28.9 25.3 6.9 25 11.8 SSW 15 20 8 11 1010.1 1009.6 0.0
17/06:30pm 29.2 25.6 6.6 24 12.1 WSW 15 24 8 13 1010.1 1009.6 0.0
17/06:00pm 29.7 25.2 7.0 24 12.3 W 20 30 11 16 1010.5 1010.0 0.0
17/05:30pm 28.7 23.6 6.1 24 12.0 W 22 35 12 19 1010.5 1010.0 0.0
17/05:00pm 29.8 24.9 7.1 24 12.3 WSW 22 32 12 17 1010.5 1010.0 0.0
17/04:30pm 29.8 24.9 7.1 24 12.3 W 22 35 12 19 1010.6 1010.1 0.0
17/04:00pm 28.8 23.1 6.8 25 11.8 W 26 37 14 20 1010.8 1010.3 0.0
17/03:30pm 29.3 25.2 7.8 26 11.7 W 19 32 10 17 1010.9 1010.4 0.0
17/03:00pm 28.9 23.5 8.0 27 11.4 W 26 37 14 20 1011.3 1010.9 0.0
17/02:30pm 28.1 23.4 7.9 28 11.0 WNW 22 33 12 18 1011.7 1011.3 0.0
17/02:00pm 28.5 23.5 8.2 28 11.1 W 24 33 13 18 1011.9 1011.5 0.0
17/01:30pm 27.4 22.7 7.8 29 10.6 WNW 22 32 12 17 1012.2 1011.8 0.0
17/01:00pm 26.7 22.0 7.7 30 10.2 WNW 22 33 12 18 1012.6 1012.2 0.0
17/12:30pm 26.1 22.3 7.7 31 9.9 WNW 17 26 9 14 1013.1 1012.7 0.0
17/12:00pm 25.0 22.0 7.6 33 9.2 WNW 13 26 7 14 1013.4 1013.0 0.0
17/11:30am 24.0 20.6 7.6 35 8.7 WNW 15 20 8 11 1013.8 1013.4 0.0
17/11:00am 22.8 20.8 7.0 36 8.2 S 7 15 4 8 1013.5 1013.1 0.0
17/10:30am 21.4 19.7 7.6 41 7.2 SSE 6 9 3 5 1013.6 1013.2 0.0
17/10:00am 19.8 18.2 8.2 47 6.0 SSE 6 7 3 4 1013.9 1013.5 0.0
17/09:30am 18.3 16.3 8.6 53 5.0 SSE 9 11 5 6 1014.2 1013.8 0.0
17/09:00am 16.2 13.4 8.7 61 3.9 SSE 13 15 7 8 1014.2 1013.8 0.0
17/08:30am 14.1 10.9 8.5 69 2.8 SSW 15 17 8 9 1014.1 1013.7 0.0
17/08:00am 12.0 9.4 7.9 76 2.0 SSW 11 15 6 8 1013.6 1013.2 0.0
17/07:30am 10.6 8.7 7.7 82 1.4 SSW 7 9 4 5 1012.9 1012.5 0.0
17/07:00am 9.5 7.0 6.4 81 1.4 SSW 9 13 5 7 1012.6 1012.2 0.0
17/06:30am 9.8 6.9 6.7 81 1.5 SSW 11 13 6 7 1012.9 1012.5 0.0
17/06:00am 9.7 6.8 6.4 80 1.5 SSW 11 13 6 7 1012.8 1012.4 0.0
17/05:30am 10.3 7.0 6.6 78 1.7 SSW 13 17 7 9 1012.6 1012.2 0.0
17/05:00am 10.8 7.2 6.6 75 2.0 SW 15 17 8 9 1012.6 1012.2 0.0
17/04:30am 12.0 9.0 7.7 75 2.1 S 13 17 7 9 1012.4 1012.0 0.0
17/04:00am 12.5 8.8 7.8 73 2.3 S 17 19 9 10 1012.5 1012.1 0.0
17/03:30am 13.2 9.9 7.9 70 2.6 S 15 20 8 11 1012.3 1011.9 0.0
17/03:00am 13.8 10.2 8.2 69 2.8 S 17 20 9 11 1012.4 1012.0 0.0
17/02:30am 14.0 10.3 8.0 67 3.0 S 17 20 9 11 1012.8 1012.4 0.0
17/02:00am 15.0 10.7 8.0 63 3.5 S 20 26 11 14 1012.9 1012.5 0.0
17/01:30am 15.2 11.3 7.3 59 3.9 S 17 22 9 12 1013.2 1012.8 0.0
17/01:00am 16.3 11.9 6.4 52 4.9 S 19 24 10 13 1013.3 1012.9 0.0
17/12:30am 16.5 12.0 4.2 44 5.8 SSW 17 19 9 10 1013.2 1012.8 0.0
17/12:00am 17.4 13.2 4.0 41 6.3 SSW 15 17 8 9 1013.1 1012.7 0.0
 
Date/Time
EDT
Temp
°C
App
Temp
°C
Dew
Point
°C
Rel
Hum
%
Delta-T
°C
Wind Press
QNH
hPa
Press
MSL
hPa
Rain since
9am
mm
Dir  Spd
km/h
Gust
km/h
Spd
kts
Gust
kts
16/11:30pm 17.2 13.3 3.5 40 6.4 SSW 13 17 7 9 1013.2 1012.8 0.0
16/11:00pm 17.4 13.0 2.6 37 6.8 SW 15 15 8 8 1013.3 1012.9 0.0
16/10:30pm 18.9 14.5 2.7 34 7.5 SW 15 17 8 9 1013.4 1013.0 0.0
16/10:00pm 18.9 14.8 2.3 33 7.7 SW 13 15 7 8 1013.1 1012.7 0.0
16/09:30pm 19.8 16.1 2.2 31 8.2 SW 11 11 6 6 1012.9 1012.5 0.0
16/09:00pm 21.0 17.3 2.3 29 8.8 SW 11 13 6 7 1012.8 1012.4 0.0
16/08:30pm 22.5 18.8 2.6 27 9.5 SW 11 11 6 6 1012.6 1012.2 0.0
16/08:00pm 25.2 21.5 2.6 23 11.0 SW 11 15 6 8 1012.4 1012.0 0.0
16/07:30pm 26.2 21.8 2.8 22 11.5 SW 15 22 8 12 1012.1 1011.7 0.0
16/07:00pm 26.3 21.6 2.9 22 11.5 SW 17 26 9 14 1012.0 1011.6 0.0
16/06:30pm 27.4 23.5 3.2 21 12.1 SW 13 22 7 12 1012.1 1011.7 0.0
16/06:00pm 27.4 23.2 3.8 22 11.9 WSW 15 24 8 13 1012.2 1011.8 0.0
16/05:30pm 26.8 22.1 3.3 22 11.7 SW 17 26 9 14 1012.5 1012.1 0.0
16/05:00pm 27.6 23.1 4.0 22 12.0 SSW 17 28 9 15 1012.7 1012.3 0.0
16/04:30pm 27.6 23.1 4.0 22 12.0 SSW 17 26 9 14 1013.0 1012.6 0.0
16/04:00pm 27.0 22.9 4.1 23 11.6 SW 15 22 8 12 1013.2 1012.8 0.0
16/03:30pm 26.1 20.4 2.7 22 11.5 SSW 22 32 12 17 1013.5 1013.1 0.0
16/03:00pm 25.8 20.7 4.3 25 10.8 SW 20 32 11 17 1013.6 1013.2 0.0
16/02:30pm 25.5 20.2 2.9 23 11.1 SSW 20 35 11 19 1013.9 1013.5 0.0
16/02:00pm 25.2 20.3 4.9 27 10.3 SSW 20 32 11 17 1014.1 1013.7 0.0
16/01:30pm 24.5 18.3 4.3 27 10.1 SSW 26 39 14 21 1014.6 1014.2 0.0
16/01:00pm 23.7 18.0 5.1 30 9.4 SW 24 43 13 23 1014.7 1014.3 0.0
16/12:30pm 23.3 16.9 5.2 31 9.1 SW 28 41 15 22 1015.2 1014.8 0.0
16/12:00pm 22.2 16.9 6.8 37 7.9 SW 24 35 13 19 1015.5 1015.1 0.0
16/11:30am 21.0 16.7 8.0 43 6.8 SSW 20 33 11 18 1015.6 1015.2 0.0
16/11:00am 20.7 15.9 8.7 46 6.3 SSW 24 35 13 19 1015.6 1015.2 0.0
16/10:30am 19.7 15.1 9.6 52 5.4 SSW 24 32 13 17 1015.6 1015.2 0.0
16/10:00am 18.3 12.5 9.6 57 4.6 SSW 30 39 16 21 1015.6 1015.2 0.0
16/09:30am 17.7 12.2 10.6 63 3.8 SSW 30 37 16 20 1015.5 1015.1 0.0
16/09:00am 16.6 12.8 12.4 76 2.3 SSW 24 32 13 17 1015.3 1014.9 0.0
16/08:30am 14.8 12.6 13.2 90 0.9 SSW 17 22 9 12 1014.9 1014.5 0.0
16/08:00am 13.4 11.4 12.8 96 0.3 SW 15 19 8 10 1014.8 1014.4 0.0
16/07:30am 12.5 10.7 12.2 98 0.2 SSW 13 15 7 8 1014.4 1014.0 0.0
16/07:00am 12.7 10.2 12.2 97 0.3 SSW 17 20 9 11 1014.1 1013.7 0.0
16/06:30am 13.2 10.4 12.6 96 0.3 SSW 19 24 10 13 1013.8 1013.4 0.0
16/06:00am 13.2 10.5 13.0 99 0.1 SW 19 24 10 13 1013.7 1013.3 0.0
16/05:30am 13.2 10.9 13.0 99 0.1 SW 17 22 9 12 1013.4 1013.0 0.0
16/05:00am 12.9 11.1 12.1 95 0.4 SW 13 17 7 9 1013.3 1012.9 0.0
16/04:30am 13.4 11.3 12.5 94 0.5 SW 15 17 8 9 1013.2 1012.8 0.0
16/04:00am 14.0 12.2 12.2 89 1.0 SW 13 17 7 9 1013.3 1012.9 0.0
16/03:30am 14.4 11.4 12.1 86 1.3 WSW 19 22 10 12 1013.6 1013.2 0.0
16/03:00am 13.5 12.1 10.9 84 1.4 WSW 9 15 5 8 1013.6 1013.2 0.0
16/02:30am 14.2 12.5 11.2 82 1.6 WSW 11 15 6 8 1013.6 1013.2 0.0
16/02:00am 14.6 12.8 11.0 79 1.9 WSW 11 15 6 8 1013.7 1013.3 0.0
16/01:30am 15.5 12.7 11.5 77 2.2 WSW 17 22 9 12 1013.9 1013.5 0.0
16/01:00am 15.2 13.4 11.0 76 2.2 WSW 11 15 6 8 1014.1 1013.7 0.0
16/12:30am 15.3 13.1 10.7 74 2.4 WSW 13 19 7 10 1014.1 1013.7 0.0
16/12:00am 16.0 13.9 11.0 72 2.7 W 13 15 7 8 1014.3 1013.9 0.0
 
Date/Time
EDT
Temp
°C
App
Temp
°C
Dew
Point
°C
Rel
Hum
%
Delta-T
°C
Wind Press
QNH
hPa
Press
MSL
hPa
Rain since
9am
mm
Dir  Spd
km/h
Gust
km/h
Spd
kts
Gust
kts
15/11:30pm 16.3 14.0 10.4 68 3.1 WSW 13 17 7 9 1014.4 1014.0 0.0
15/11:00pm 16.9 13.9 10.7 67 3.3 WSW 17 20 9 11 1014.4 1014.0 0.0
15/10:30pm 17.6 14.6 10.7 64 3.7 WSW 17 20 9 11 1014.2 1013.8 0.0
15/10:00pm 18.5 15.0 10.8 61 4.2 WSW 20 28 11 15 1014.0 1013.6 0.0
15/09:30pm 19.1 15.5 10.4 57 4.7 WSW 20 28 11 15 1013.6 1013.2 0.0
15/09:00pm 19.9 15.7 9.8 52 5.4 WSW 22 30 12 16 1013.5 1013.1 0.0
15/08:30pm 20.5 15.2 9.7 50 5.8 WSW 28 39 15 21 1013.6 1013.2 0.0
15/08:00pm 21.0 16.2 8.9 46 6.4 WSW 24 35 13 19 1013.5 1013.1 0.0
15/07:30pm 21.5 16.3 8.7 44 6.8 WSW 26 33 14 18 1013.2 1012.8 0.0
15/07:00pm 22.4 16.6 7.8 39 7.7 W 28 37 15 20 1013.0 1012.6 0.0
15/06:30pm 23.1 17.7 8.0 38 8.0 WSW 26 37 14 20 1012.9 1012.5 0.0
15/06:00pm 23.1 17.8 8.4 39 7.8 WSW 26 35 14 19 1012.8 1012.4 0.0
15/05:30pm 23.2 16.9 8.9 40 7.7 WSW 32 46 17 25 1013.0 1012.6 0.0
15/05:00pm 22.8 16.9 9.2 42 7.3 WSW 30 43 16 23 1013.2 1012.8 0.0
15/04:30pm 23.9 17.0 8.7 38 8.2 WSW 35 48 19 26 1013.3 1012.9 0.0
15/04:14pm 24.5 18.1 8.5 36 8.6 WSW 32 54 17 29 1013.0 1012.6 0.0
15/04:00pm 24.6 18.5 8.1 35 8.8 W 30 44 16 24 1013.1 1012.7 0.0
15/03:30pm 25.5 19.6 7.6 32 9.5 W 28 43 15 23 1013.4 1013.0 0.0
15/03:00pm 25.0 19.0 7.2 32 9.4 W 28 46 15 25 1013.9 1013.5 0.0
15/02:30pm 24.6 18.7 7.3 33 9.1 WSW 28 39 15 21 1014.1 1013.7 0.0
15/02:00pm 24.4 18.4 7.1 33 9.1 WSW 28 41 15 22 1014.4 1014.0 0.0
15/01:30pm 23.5 17.7 6.3 33 8.8 W 26 39 14 21 1014.6 1014.2 0.0
15/01:00pm 22.7 17.5 7.3 37 8.0 W 24 33 13 18 1015.0 1014.6 0.0
15/12:30pm 21.4 15.8 7.3 40 7.3 W 26 35 14 19 1015.5 1015.1 0.0

Other Formats:

Comma delimited format used in spreadsheet applications
http://www.bom.gov.au/fwo/IDV60801/IDV60801.94920.axf

JavaScript Object Notation format (JSON) in row-major order
http://www.bom.gov.au/fwo/IDV60801/IDV60801.94920.json